SWA2987 KLIT-KDAL
Flight info
| Callsign | SWA2987 |
|---|---|
| Flight time | 0h 53m |
| Altitude | 24000 |
| Route | LESME DIRRK HIBIL3 |
| Aircraft | B738/M-SADE2E3GIJ4RWZ/LB1D1 |
Departure
| Time | 2026-05-08 16:16 |
|---|---|
| Airport | Bill & Hillary Clinton National Airport/Adams Field (KLIT) |
Arrival
| Time | 2026-05-08 17:09 |
|---|---|
| Airport | Dallas Love Field (KDAL) |
| Time | Latitude | Longitude | Altitude | Speed | Heading |
|---|---|---|---|---|---|
| 2026-05-08 15:52 | 34.73029 | -92.22029 | 266 ft | 0 kts | 111° |
| 2026-05-08 16:07 | 34.73034 | -92.22042 | 275 ft | 2 kts | 112° |
| 2026-05-08 16:07 | 34.73040 | -92.22060 | 266 ft | 2 kts | 115° |
| 2026-05-08 16:07 | 34.73047 | -92.22079 | 266 ft | 2 kts | 101° |
| 2026-05-08 16:07 | 34.73049 | -92.22098 | 266 ft | 2 kts | 92° |
| 2026-05-08 16:08 | 34.73049 | -92.22118 | 266 ft | 2 kts | 80° |
| 2026-05-08 16:08 | 34.73044 | -92.22136 | 266 ft | 1 kts | 44° |
| 2026-05-08 16:08 | 34.73043 | -92.22138 | 266 ft | 0 kts | 28° |
| 2026-05-08 16:09 | 34.73045 | -92.22137 | 266 ft | 2 kts | 22° |
| 2026-05-08 16:09 | 34.73087 | -92.22118 | 266 ft | 10 kts | 21° |
| 2026-05-08 16:09 | 34.73152 | -92.22086 | 266 ft | 10 kts | 21° |
| 2026-05-08 16:09 | 34.73211 | -92.22044 | 266 ft | 10 kts | 52° |
| 2026-05-08 16:10 | 34.73205 | -92.21954 | 266 ft | 12 kts | 104° |
| 2026-05-08 16:10 | 34.73178 | -92.21863 | 266 ft | 11 kts | 114° |
| 2026-05-08 16:10 | 34.73132 | -92.21788 | 266 ft | 12 kts | 146° |
| 2026-05-08 16:10 | 34.73079 | -92.21714 | 266 ft | 12 kts | 116° |
| 2026-05-08 16:11 | 34.73046 | -92.21623 | 266 ft | 12 kts | 114° |
| 2026-05-08 16:11 | 34.73006 | -92.21517 | 266 ft | 15 kts | 116° |
| 2026-05-08 16:11 | 34.72964 | -92.21406 | 266 ft | 14 kts | 113° |
| 2026-05-08 16:11 | 34.72923 | -92.21299 | 266 ft | 14 kts | 115° |
| 2026-05-08 16:12 | 34.72892 | -92.21195 | 266 ft | 13 kts | 95° |
| 2026-05-08 16:12 | 34.72940 | -92.21101 | 266 ft | 15 kts | 46° |
| 2026-05-08 16:12 | 34.73018 | -92.21000 | 266 ft | 17 kts | 47° |
| 2026-05-08 16:12 | 34.73097 | -92.20900 | 266 ft | 16 kts | 46° |
| 2026-05-08 16:13 | 34.73181 | -92.20793 | 266 ft | 18 kts | 46° |
| 2026-05-08 16:13 | 34.73266 | -92.20683 | 266 ft | 18 kts | 48° |
| 2026-05-08 16:13 | 34.73348 | -92.20576 | 266 ft | 17 kts | 44° |
| 2026-05-08 16:13 | 34.73423 | -92.20470 | 266 ft | 16 kts | 51° |
| 2026-05-08 16:14 | 34.73491 | -92.20363 | 266 ft | 16 kts | 52° |
| 2026-05-08 16:14 | 34.73554 | -92.20257 | 266 ft | 14 kts | 62° |
| 2026-05-08 16:14 | 34.73552 | -92.20221 | 266 ft | 0 kts | 114° |
| 2026-05-08 16:14 | 34.73546 | -92.20207 | 266 ft | 10 kts | 119° |
| 2026-05-08 16:15 | 34.73475 | -92.20172 | 266 ft | 13 kts | 207° |
| 2026-05-08 16:15 | 34.73445 | -92.20202 | 267 ft | 0 kts | 225° |
| 2026-05-08 16:15 | 34.73379 | -92.20283 | 267 ft | 53 kts | 225° |
| 2026-05-08 16:15 | 34.72909 | -92.20886 | 266 ft | 140 kts | 225° |
| 2026-05-08 16:16 | 34.72138 | -92.21904 | 737 ft | 178 kts | 226° |
| 2026-05-08 16:16 | 34.71418 | -92.23192 | 1862 ft | 193 kts | 248° |
| 2026-05-08 16:16 | 34.71260 | -92.24883 | 2783 ft | 211 kts | 268° |
| 2026-05-08 16:16 | 34.71330 | -92.26762 | 3416 ft | 233 kts | 272° |
| 2026-05-08 16:17 | 34.71546 | -92.28849 | 3899 ft | 264 kts | 276° |
| 2026-05-08 16:17 | 34.71716 | -92.30303 | 4673 ft | 258 kts | 275° |
| 2026-05-08 16:17 | 34.71925 | -92.33220 | 6148 ft | 260 kts | 271° |
| 2026-05-08 16:17 | 34.71657 | -92.35390 | 7080 ft | 263 kts | 248° |
| 2026-05-08 16:18 | 34.70882 | -92.37396 | 8163 ft | 260 kts | 246° |
| 2026-05-08 16:18 | 34.70082 | -92.39364 | 9242 ft | 260 kts | 246° |
| 2026-05-08 16:18 | 34.69270 | -92.41354 | 10192 ft | 264 kts | 246° |
| 2026-05-08 16:18 | 34.68444 | -92.43391 | 10693 ft | 284 kts | 246° |
| 2026-05-08 16:19 | 34.67532 | -92.45654 | 10895 ft | 311 kts | 246° |
| 2026-05-08 16:19 | 34.66543 | -92.48112 | 11079 ft | 336 kts | 246° |
| 2026-05-08 16:19 | 34.65490 | -92.50730 | 11524 ft | 350 kts | 246° |
| 2026-05-08 16:19 | 34.64418 | -92.53395 | 12317 ft | 352 kts | 246° |
| 2026-05-08 16:20 | 34.63340 | -92.56072 | 13174 ft | 353 kts | 246° |
| 2026-05-08 16:20 | 34.62261 | -92.58757 | 13969 ft | 355 kts | 246° |
| 2026-05-08 16:20 | 34.61173 | -92.61463 | 14656 ft | 358 kts | 246° |
| 2026-05-08 16:20 | 34.60080 | -92.64186 | 15336 ft | 360 kts | 246° |
| 2026-05-08 16:21 | 34.58976 | -92.66934 | 16010 ft | 363 kts | 246° |
| 2026-05-08 16:21 | 34.57861 | -92.69710 | 16639 ft | 367 kts | 246° |
| 2026-05-08 16:21 | 34.56737 | -92.72506 | 17268 ft | 370 kts | 246° |
| 2026-05-08 16:21 | 34.55605 | -92.75319 | 17938 ft | 372 kts | 246° |
| 2026-05-08 16:22 | 34.54463 | -92.78152 | 18531 ft | 375 kts | 246° |
| 2026-05-08 16:22 | 34.53317 | -92.80995 | 19083 ft | 377 kts | 246° |
| 2026-05-08 16:22 | 34.52165 | -92.83850 | 19707 ft | 377 kts | 246° |
| 2026-05-08 16:22 | 34.51011 | -92.86707 | 20270 ft | 378 kts | 246° |
| 2026-05-08 16:23 | 34.49864 | -92.89545 | 20815 ft | 380 kts | 246° |
| 2026-05-08 16:23 | 34.48698 | -92.92429 | 21374 ft | 382 kts | 246° |
| 2026-05-08 16:23 | 34.47526 | -92.95323 | 21917 ft | 383 kts | 246° |
| 2026-05-08 16:23 | 34.46349 | -92.98227 | 22475 ft | 384 kts | 246° |
| 2026-05-08 16:24 | 34.45167 | -93.01142 | 22964 ft | 387 kts | 246° |
| 2026-05-08 16:24 | 34.43974 | -93.04081 | 23398 ft | 390 kts | 245° |
| 2026-05-08 16:24 | 34.42772 | -93.07041 | 23705 ft | 394 kts | 245° |
| 2026-05-08 16:24 | 34.41557 | -93.10029 | 24007 ft | 396 kts | 245° |
| 2026-05-08 16:25 | 34.40335 | -93.13034 | 24046 ft | 398 kts | 245° |
| 2026-05-08 16:25 | 34.39112 | -93.16033 | 24048 ft | 396 kts | 245° |
| 2026-05-08 16:25 | 34.37909 | -93.18986 | 24051 ft | 396 kts | 245° |
| 2026-05-08 16:25 | 34.36690 | -93.21973 | 24052 ft | 396 kts | 245° |
| 2026-05-08 16:26 | 34.35466 | -93.24968 | 24062 ft | 396 kts | 245° |
| 2026-05-08 16:26 | 34.34245 | -93.27956 | 24058 ft | 396 kts | 245° |
| 2026-05-08 16:26 | 34.33022 | -93.30946 | 24048 ft | 396 kts | 245° |
| 2026-05-08 16:26 | 34.31797 | -93.33939 | 24058 ft | 396 kts | 245° |
| 2026-05-08 16:27 | 34.30573 | -93.36924 | 24055 ft | 396 kts | 245° |
| 2026-05-08 16:27 | 34.29350 | -93.39907 | 24050 ft | 396 kts | 245° |
| 2026-05-08 16:27 | 34.28124 | -93.42892 | 24054 ft | 396 kts | 245° |
| 2026-05-08 16:27 | 34.26900 | -93.45873 | 24055 ft | 396 kts | 245° |
| 2026-05-08 16:28 | 34.25671 | -93.48860 | 24057 ft | 396 kts | 245° |
| 2026-05-08 16:28 | 34.24444 | -93.51841 | 24048 ft | 396 kts | 245° |
| 2026-05-08 16:28 | 34.23218 | -93.54816 | 24041 ft | 396 kts | 245° |
| 2026-05-08 16:28 | 34.22008 | -93.57752 | 24051 ft | 395 kts | 245° |
| 2026-05-08 16:29 | 34.20780 | -93.60728 | 24048 ft | 396 kts | 245° |
| 2026-05-08 16:29 | 34.19551 | -93.63704 | 24051 ft | 395 kts | 245° |
| 2026-05-08 16:29 | 34.18320 | -93.66683 | 24048 ft | 396 kts | 245° |
| 2026-05-08 16:29 | 34.17093 | -93.69650 | 24047 ft | 396 kts | 245° |
| 2026-05-08 16:30 | 34.15862 | -93.72624 | 24018 ft | 396 kts | 245° |
| 2026-05-08 16:30 | 34.14628 | -93.75599 | 24041 ft | 394 kts | 245° |
| 2026-05-08 16:30 | 34.13429 | -93.78572 | 24041 ft | 393 kts | 247° |
| 2026-05-08 16:30 | 34.12364 | -93.81606 | 24047 ft | 393 kts | 249° |
| 2026-05-08 16:31 | 34.11374 | -93.84654 | 24044 ft | 394 kts | 249° |
| 2026-05-08 16:31 | 34.10391 | -93.87746 | 24046 ft | 394 kts | 249° |
| 2026-05-08 16:31 | 34.09409 | -93.90836 | 24043 ft | 395 kts | 249° |
| 2026-05-08 16:31 | 34.08417 | -93.93926 | 24045 ft | 395 kts | 249° |
| 2026-05-08 16:32 | 34.07415 | -93.97016 | 24045 ft | 396 kts | 249° |
| 2026-05-08 16:32 | 34.06402 | -94.00119 | 24041 ft | 396 kts | 249° |
| 2026-05-08 16:32 | 34.05388 | -94.03209 | 24039 ft | 397 kts | 249° |
| 2026-05-08 16:32 | 34.04371 | -94.06299 | 24038 ft | 396 kts | 249° |
| 2026-05-08 16:33 | 34.03351 | -94.09387 | 24039 ft | 396 kts | 249° |
| 2026-05-08 16:33 | 34.02333 | -94.12470 | 24037 ft | 396 kts | 249° |
| 2026-05-08 16:33 | 34.01310 | -94.15561 | 24039 ft | 396 kts | 249° |
| 2026-05-08 16:33 | 34.00292 | -94.18638 | 24037 ft | 396 kts | 249° |
| 2026-05-08 16:34 | 33.99270 | -94.21722 | 24033 ft | 396 kts | 249° |
| 2026-05-08 16:34 | 33.98247 | -94.24804 | 24037 ft | 397 kts | 249° |
| 2026-05-08 16:34 | 33.97223 | -94.27889 | 24040 ft | 397 kts | 249° |
| 2026-05-08 16:34 | 33.96207 | -94.30946 | 24039 ft | 398 kts | 249° |
| 2026-05-08 16:35 | 33.95174 | -94.34049 | 24037 ft | 398 kts | 249° |
| 2026-05-08 16:35 | 33.94145 | -94.37141 | 24036 ft | 398 kts | 249° |
| 2026-05-08 16:35 | 33.93109 | -94.40249 | 24035 ft | 399 kts | 249° |
| 2026-05-08 16:35 | 33.92075 | -94.43345 | 24036 ft | 398 kts | 249° |
| 2026-05-08 16:36 | 33.91042 | -94.46438 | 24036 ft | 398 kts | 249° |
| 2026-05-08 16:36 | 33.90009 | -94.49529 | 24034 ft | 398 kts | 249° |
| 2026-05-08 16:36 | 33.88973 | -94.52625 | 24035 ft | 398 kts | 249° |
| 2026-05-08 16:36 | 33.87939 | -94.55710 | 24034 ft | 398 kts | 249° |
| 2026-05-08 16:37 | 33.86902 | -94.58804 | 24032 ft | 398 kts | 249° |
| 2026-05-08 16:37 | 33.85878 | -94.61855 | 24023 ft | 397 kts | 249° |
| 2026-05-08 16:37 | 33.84841 | -94.64942 | 24021 ft | 397 kts | 249° |
| 2026-05-08 16:37 | 33.83805 | -94.68022 | 24028 ft | 397 kts | 249° |
| 2026-05-08 16:38 | 33.82766 | -94.71108 | 24030 ft | 398 kts | 249° |
| 2026-05-08 16:38 | 33.81726 | -94.74195 | 24028 ft | 398 kts | 249° |
| 2026-05-08 16:38 | 33.80687 | -94.77276 | 24030 ft | 398 kts | 249° |
| 2026-05-08 16:38 | 33.79646 | -94.80361 | 24025 ft | 398 kts | 249° |
| 2026-05-08 16:39 | 33.78604 | -94.83449 | 24028 ft | 398 kts | 249° |
| 2026-05-08 16:39 | 33.77560 | -94.86534 | 24028 ft | 398 kts | 248° |
| 2026-05-08 16:39 | 33.76526 | -94.89576 | 24027 ft | 398 kts | 248° |
| 2026-05-08 16:39 | 33.75472 | -94.92648 | 24026 ft | 398 kts | 248° |
| 2026-05-08 16:40 | 33.74415 | -94.95717 | 24037 ft | 398 kts | 248° |
| 2026-05-08 16:40 | 33.73350 | -94.98802 | 24031 ft | 399 kts | 248° |
| 2026-05-08 16:40 | 33.72291 | -95.01872 | 24028 ft | 400 kts | 248° |
| 2026-05-08 16:40 | 33.71228 | -95.04953 | 24029 ft | 400 kts | 248° |
| 2026-05-08 16:41 | 33.70505 | -95.07048 | 24029 ft | 401 kts | 248° |
| 2026-05-08 16:41 | 33.69451 | -95.10098 | 24025 ft | 401 kts | 248° |
| 2026-05-08 16:41 | 33.68380 | -95.13197 | 24026 ft | 402 kts | 248° |
| 2026-05-08 16:42 | 33.66236 | -95.19392 | 24028 ft | 402 kts | 248° |
| 2026-05-08 16:42 | 33.65164 | -95.22487 | 24025 ft | 402 kts | 248° |
| 2026-05-08 16:42 | 33.64091 | -95.25579 | 24028 ft | 401 kts | 248° |
| 2026-05-08 16:42 | 33.63020 | -95.28666 | 24027 ft | 401 kts | 248° |
| 2026-05-08 16:43 | 33.61946 | -95.31758 | 24030 ft | 401 kts | 248° |
| 2026-05-08 16:43 | 33.60870 | -95.34849 | 24019 ft | 401 kts | 248° |
| 2026-05-08 16:43 | 33.59808 | -95.37898 | 23764 ft | 392 kts | 248° |
| 2026-05-08 16:43 | 33.58767 | -95.40882 | 23279 ft | 383 kts | 248° |
| 2026-05-08 16:44 | 33.57750 | -95.43803 | 22781 ft | 374 kts | 248° |
| 2026-05-08 16:44 | 33.56779 | -95.46620 | 22335 ft | 366 kts | 249° |
| 2026-05-08 16:44 | 33.55822 | -95.49408 | 21886 ft | 358 kts | 249° |
| 2026-05-08 16:44 | 33.54890 | -95.52125 | 21488 ft | 344 kts | 249° |
| 2026-05-08 16:45 | 33.54000 | -95.54717 | 21095 ft | 331 kts | 249° |
| 2026-05-08 16:45 | 33.53124 | -95.57263 | 20726 ft | 330 kts | 249° |
| 2026-05-08 16:45 | 33.52246 | -95.59817 | 20359 ft | 333 kts | 249° |
| 2026-05-08 16:45 | 33.51355 | -95.62402 | 19970 ft | 336 kts | 249° |
| 2026-05-08 16:46 | 33.50471 | -95.64964 | 19582 ft | 337 kts | 249° |
| 2026-05-08 16:46 | 33.49572 | -95.67565 | 19191 ft | 338 kts | 248° |
| 2026-05-08 16:46 | 33.48672 | -95.70165 | 18799 ft | 337 kts | 248° |
| 2026-05-08 16:46 | 33.47766 | -95.72755 | 18390 ft | 334 kts | 248° |
| 2026-05-08 16:47 | 33.46873 | -95.75297 | 17964 ft | 328 kts | 248° |
| 2026-05-08 16:47 | 33.45989 | -95.77811 | 17567 ft | 327 kts | 248° |
| 2026-05-08 16:47 | 33.45105 | -95.80325 | 17173 ft | 326 kts | 248° |
| 2026-05-08 16:47 | 33.44223 | -95.82833 | 16790 ft | 326 kts | 248° |
| 2026-05-08 16:48 | 33.43345 | -95.85331 | 16412 ft | 325 kts | 248° |
| 2026-05-08 16:48 | 33.42469 | -95.87820 | 16010 ft | 321 kts | 248° |
| 2026-05-08 16:48 | 33.41619 | -95.90234 | 15438 ft | 316 kts | 248° |
| 2026-05-08 16:48 | 33.40766 | -95.92653 | 14721 ft | 314 kts | 249° |
| 2026-05-08 16:49 | 33.39918 | -95.95059 | 13938 ft | 314 kts | 249° |
| 2026-05-08 16:49 | 33.39069 | -95.97466 | 13153 ft | 313 kts | 249° |
| 2026-05-08 16:49 | 33.38225 | -95.99856 | 12433 ft | 310 kts | 249° |
| 2026-05-08 16:49 | 33.37389 | -96.02224 | 11737 ft | 307 kts | 249° |
| 2026-05-08 16:50 | 33.36560 | -96.04568 | 11038 ft | 305 kts | 248° |
| 2026-05-08 16:50 | 33.35731 | -96.06914 | 10701 ft | 308 kts | 248° |
| 2026-05-08 16:50 | 33.34897 | -96.09270 | 10578 ft | 306 kts | 248° |
| 2026-05-08 16:50 | 33.34074 | -96.11593 | 10459 ft | 307 kts | 248° |
| 2026-05-08 16:51 | 33.33255 | -96.13900 | 10341 ft | 293 kts | 248° |
| 2026-05-08 16:51 | 33.32482 | -96.16075 | 10302 ft | 276 kts | 248° |
| 2026-05-08 16:51 | 33.31743 | -96.18154 | 10295 ft | 269 kts | 248° |
| 2026-05-08 16:51 | 33.31018 | -96.20195 | 10063 ft | 265 kts | 248° |
| 2026-05-08 16:52 | 33.30300 | -96.22216 | 9548 ft | 264 kts | 248° |
| 2026-05-08 16:52 | 33.29583 | -96.24233 | 9194 ft | 262 kts | 248° |
| 2026-05-08 16:52 | 33.28871 | -96.26233 | 9078 ft | 262 kts | 248° |
| 2026-05-08 16:52 | 33.28153 | -96.28250 | 9027 ft | 266 kts | 248° |
| 2026-05-08 16:53 | 33.26700 | -96.32325 | 9007 ft | 268 kts | 248° |
| 2026-05-08 16:53 | 33.25838 | -96.34294 | 8995 ft | 264 kts | 237° |
| 2026-05-08 16:53 | 33.24736 | -96.36022 | 8799 ft | 262 kts | 233° |
| 2026-05-08 16:54 | 33.23597 | -96.37697 | 8633 ft | 257 kts | 233° |
| 2026-05-08 16:54 | 33.22476 | -96.39358 | 8441 ft | 256 kts | 233° |
| 2026-05-08 16:54 | 33.21369 | -96.41027 | 8286 ft | 257 kts | 234° |
| 2026-05-08 16:54 | 33.20262 | -96.42715 | 8130 ft | 258 kts | 234° |
| 2026-05-08 16:55 | 33.19161 | -96.44401 | 7973 ft | 258 kts | 234° |
| 2026-05-08 16:55 | 33.18056 | -96.46095 | 7812 ft | 259 kts | 234° |
| 2026-05-08 16:55 | 33.16981 | -96.47811 | 7642 ft | 257 kts | 236° |
| 2026-05-08 16:55 | 33.15957 | -96.49557 | 7487 ft | 256 kts | 237° |
| 2026-05-08 16:56 | 33.14941 | -96.51307 | 7332 ft | 255 kts | 237° |
| 2026-05-08 16:56 | 33.13931 | -96.53044 | 7176 ft | 255 kts | 237° |
| 2026-05-08 16:56 | 33.12935 | -96.54753 | 7019 ft | 254 kts | 237° |
| 2026-05-08 16:56 | 33.11925 | -96.56479 | 6872 ft | 253 kts | 236° |
| 2026-05-08 16:57 | 33.10912 | -96.58206 | 6715 ft | 254 kts | 236° |
| 2026-05-08 16:57 | 33.09901 | -96.59927 | 6566 ft | 253 kts | 237° |
| 2026-05-08 16:57 | 33.08889 | -96.61644 | 6486 ft | 250 kts | 236° |
| 2026-05-08 16:57 | 33.07915 | -96.63307 | 6407 ft | 240 kts | 239° |
| 2026-05-08 16:58 | 33.07353 | -96.65107 | 6324 ft | 228 kts | 260° |
| 2026-05-08 16:58 | 33.07090 | -96.66945 | 6097 ft | 223 kts | 261° |
| 2026-05-08 16:58 | 33.06830 | -96.68758 | 5801 ft | 221 kts | 260° |
| 2026-05-08 16:58 | 33.06559 | -96.70567 | 5511 ft | 221 kts | 261° |
| 2026-05-08 16:59 | 33.06303 | -96.72392 | 5223 ft | 222 kts | 262° |
| 2026-05-08 16:59 | 33.06047 | -96.74166 | 5051 ft | 218 kts | 259° |
| 2026-05-08 16:59 | 33.05754 | -96.75944 | 4745 ft | 220 kts | 260° |
| 2026-05-08 16:59 | 33.05462 | -96.77736 | 4459 ft | 217 kts | 259° |
| 2026-05-08 17:00 | 33.05179 | -96.79450 | 4249 ft | 207 kts | 258° |
| 2026-05-08 17:00 | 33.04901 | -96.81132 | 3772 ft | 208 kts | 257° |
| 2026-05-08 17:00 | 33.04625 | -96.82800 | 3520 ft | 197 kts | 257° |
| 2026-05-08 17:00 | 33.04373 | -96.84335 | 3418 ft | 181 kts | 256° |
| 2026-05-08 17:01 | 33.04136 | -96.85769 | 3169 ft | 174 kts | 255° |
| 2026-05-08 17:01 | 33.03900 | -96.87205 | 2771 ft | 179 kts | 255° |
| 2026-05-08 17:01 | 33.03660 | -96.88655 | 2562 ft | 183 kts | 255° |
| 2026-05-08 17:01 | 33.03412 | -96.90152 | 2534 ft | 182 kts | 253° |
| 2026-05-08 17:02 | 33.03171 | -96.91620 | 2496 ft | 176 kts | 254° |
| 2026-05-08 17:02 | 33.02942 | -96.93009 | 2475 ft | 164 kts | 254° |
| 2026-05-08 17:02 | 33.02722 | -96.94335 | 2492 ft | 161 kts | 253° |
| 2026-05-08 17:02 | 33.02512 | -96.95600 | 2470 ft | 155 kts | 253° |
| 2026-05-08 17:03 | 33.02302 | -96.96870 | 2491 ft | 153 kts | 253° |
| 2026-05-08 17:03 | 33.02058 | -96.98079 | 2478 ft | 151 kts | 242° |
| 2026-05-08 17:03 | 33.01459 | -96.99083 | 2453 ft | 148 kts | 222° |
| 2026-05-08 17:03 | 33.00643 | -96.99788 | 2451 ft | 144 kts | 201° |
| 2026-05-08 17:04 | 32.99686 | -97.00090 | 2439 ft | 143 kts | 183° |
| 2026-05-08 17:04 | 32.98683 | -96.99982 | 2406 ft | 149 kts | 168° |
| 2026-05-08 17:04 | 32.97723 | -96.99506 | 2328 ft | 152 kts | 146° |
| 2026-05-08 17:04 | 32.96954 | -96.98648 | 2286 ft | 151 kts | 140° |
| 2026-05-08 17:05 | 32.96180 | -96.97805 | 2225 ft | 150 kts | 140° |
| 2026-05-08 17:05 | 32.95439 | -96.96967 | 2226 ft | 146 kts | 139° |
| 2026-05-08 17:05 | 32.94718 | -96.96137 | 2200 ft | 141 kts | 138° |
| 2026-05-08 17:05 | 32.94032 | -96.95340 | 2169 ft | 135 kts | 139° |
| 2026-05-08 17:06 | 32.93358 | -96.94558 | 2135 ft | 135 kts | 139° |
| 2026-05-08 17:06 | 32.92678 | -96.93768 | 2124 ft | 138 kts | 140° |
| 2026-05-08 17:06 | 32.91983 | -96.92960 | 2120 ft | 141 kts | 138° |
| 2026-05-08 17:06 | 32.91275 | -96.92137 | 2009 ft | 142 kts | 137° |
| 2026-05-08 17:07 | 32.90572 | -96.91317 | 1851 ft | 143 kts | 137° |
| 2026-05-08 17:07 | 32.89881 | -96.90515 | 1663 ft | 137 kts | 136° |
| 2026-05-08 17:07 | 32.89202 | -96.89724 | 1466 ft | 138 kts | 136° |
| 2026-05-08 17:07 | 32.88507 | -96.88916 | 1304 ft | 139 kts | 137° |
| 2026-05-08 17:08 | 32.87811 | -96.88104 | 1099 ft | 139 kts | 136° |
| 2026-05-08 17:08 | 32.87134 | -96.87314 | 924 ft | 135 kts | 135° |
| 2026-05-08 17:08 | 32.86453 | -96.86519 | 734 ft | 138 kts | 136° |
| 2026-05-08 17:08 | 32.85764 | -96.85716 | 544 ft | 137 kts | 137° |
| 2026-05-08 17:09 | 32.85115 | -96.84979 | 491 ft | 110 kts | 135° |
| 2026-05-08 17:09 | 32.84839 | -96.84653 | 489 ft | 16 kts | 136° |
| 2026-05-08 17:09 | 32.84751 | -96.84591 | 484 ft | 15 kts | 191° |
| 2026-05-08 17:09 | 32.84719 | -96.84633 | 487 ft | 0 kts | 234° |
| 2026-05-08 17:10 | 32.84717 | -96.84636 | 488 ft | 1 kts | 234° |
| 2026-05-08 17:10 | 32.84707 | -96.84664 | 490 ft | 8 kts | 266° |
| 2026-05-08 17:10 | 32.84769 | -96.84742 | 489 ft | 19 kts | 298° |
| 2026-05-08 17:10 | 32.84744 | -96.84914 | 489 ft | 24 kts | 269° |
| 2026-05-08 17:11 | 32.84744 | -96.85114 | 490 ft | 23 kts | 270° |
| 2026-05-08 17:11 | 32.84744 | -96.85264 | 488 ft | 8 kts | 275° |
| 2026-05-08 17:11 | 32.84699 | -96.85295 | 483 ft | 11 kts | 154° |
| 2026-05-08 17:11 | 32.84646 | -96.85241 | 486 ft | 6 kts | 137° |
| 2026-05-08 17:12 | 32.84637 | -96.85231 | 486 ft | 0 kts | 137° |